sensor_id;sensor_type;location;lat;lon;timestamp;temperature;humidity
20432;DHT22;10375;49.136;10.366;2024-02-21T00:01:24;6.00;99.90
20432;DHT22;10375;49.136;10.366;2024-02-21T00:03:51;6.00;99.90
20432;DHT22;10375;49.136;10.366;2024-02-21T00:06:18;5.90;99.90
20432;DHT22;10375;49.136;10.366;2024-02-21T00:08:45;5.90;99.90
20432;DHT22;10375;49.136;10.366;2024-02-21T00:11:13;5.90;99.90
20432;DHT22;10375;49.136;10.366;2024-02-21T00:13:40;5.90;99.90
20432;DHT22;10375;49.136;10.366;2024-02-21T00:16:07;5.90;99.90
20432;DHT22;10375;49.136;10.366;2024-02-21T00:18:35;5.80;99.90
20432;DHT22;10375;49.136;10.366;2024-02-21T00:21:02;5.80;99.90
20432;DHT22;10375;49.136;10.366;2024-02-21T00:23:30;5.80;99.90
20432;DHT22;10375;49.136;10.366;2024-02-21T00:25:57;5.80;99.90
20432;DHT22;10375;49.136;10.366;2024-02-21T00:28:24;5.80;99.90
20432;DHT22;10375;49.136;10.366;2024-02-21T00:30:51;5.80;99.90
20432;DHT22;10375;49.136;10.366;2024-02-21T00:33:20;5.80;99.90
20432;DHT22;10375;49.136;10.366;2024-02-21T00:35:47;5.90;99.90
20432;DHT22;10375;49.136;10.366;2024-02-21T00:38:15;5.90;99.90
20432;DHT22;10375;49.136;10.366;2024-02-21T00:40:42;6.00;99.90
20432;DHT22;10375;49.136;10.366;2024-02-21T00:43:09;6.00;99.90
20432;DHT22;10375;49.136;10.366;2024-02-21T00:45:37;6.00;99.90
20432;DHT22;10375;49.136;10.366;2024-02-21T00:48:05;6.00;99.90
20432;DHT22;10375;49.136;10.366;2024-02-21T00:50:32;5.90;99.90
20432;DHT22;10375;49.136;10.366;2024-02-21T00:53:00;6.00;99.90
20432;DHT22;10375;49.136;10.366;2024-02-21T00:55:27;6.10;99.90
20432;DHT22;10375;49.136;10.366;2024-02-21T00:57:54;6.10;99.90
20432;DHT22;10375;49.136;10.366;2024-02-21T01:00:22;6.00;99.90
20432;DHT22;10375;49.136;10.366;2024-02-21T01:02:49;6.00;99.90
20432;DHT22;10375;49.136;10.366;2024-02-21T01:05:19;6.10;99.90
20432;DHT22;10375;49.136;10.366;2024-02-21T01:07:47;6.00;99.90
20432;DHT22;10375;49.136;10.366;2024-02-21T01:10:14;6.10;99.90
20432;DHT22;10375;49.136;10.366;2024-02-21T01:12:41;6.10;99.90
20432;DHT22;10375;49.136;10.366;2024-02-21T01:15:09;6.20;99.90
20432;DHT22;10375;49.136;10.366;2024-02-21T01:17:37;6.10;99.90
20432;DHT22;10375;49.136;10.366;2024-02-21T01:20:04;6.20;99.90
20432;DHT22;10375;49.136;10.366;2024-02-21T01:22:33;6.10;99.90
20432;DHT22;10375;49.136;10.366;2024-02-21T01:25:00;6.10;99.90
20432;DHT22;10375;49.136;10.366;2024-02-21T01:27:27;6.20;99.90
20432;DHT22;10375;49.136;10.366;2024-02-21T01:29:54;6.20;99.90
20432;DHT22;10375;49.136;10.366;2024-02-21T01:32:22;6.20;99.90
20432;DHT22;10375;49.136;10.366;2024-02-21T01:34:51;6.20;99.90
20432;DHT22;10375;49.136;10.366;2024-02-21T01:37:19;6.20;99.90
20432;DHT22;10375;49.136;10.366;2024-02-21T01:39:46;6.20;99.90
20432;DHT22;10375;49.136;10.366;2024-02-21T01:42:13;6.30;99.90
20432;DHT22;10375;49.136;10.366;2024-02-21T01:44:40;6.30;99.90
20432;DHT22;10375;49.136;10.366;2024-02-21T01:47:08;6.30;99.90
20432;DHT22;10375;49.136;10.366;2024-02-21T01:49:35;6.30;99.90
20432;DHT22;10375;49.136;10.366;2024-02-21T01:52:03;6.30;99.90
20432;DHT22;10375;49.136;10.366;2024-02-21T01:54:31;6.20;99.90
20432;DHT22;10375;49.136;10.366;2024-02-21T01:56:58;6.30;99.90
20432;DHT22;10375;49.136;10.366;2024-02-21T01:59:25;6.20;99.90
20432;DHT22;10375;49.136;10.366;2024-02-21T02:01:55;6.30;99.90
20432;DHT22;10375;49.136;10.366;2024-02-21T02:04:24;6.20;99.90
20432;DHT22;10375;49.136;10.366;2024-02-21T02:06:52;6.20;99.90
20432;DHT22;10375;49.136;10.366;2024-02-21T02:09:21;6.20;99.90
20432;DHT22;10375;49.136;10.366;2024-02-21T02:11:48;6.20;99.90
20432;DHT22;10375;49.136;10.366;2024-02-21T02:14:16;6.30;99.90
20432;DHT22;10375;49.136;10.366;2024-02-21T02:16:46;6.20;99.90
20432;DHT22;10375;49.136;10.366;2024-02-21T02:19:14;6.30;99.90
20432;DHT22;10375;49.136;10.366;2024-02-21T02:21:47;6.20;99.90
20432;DHT22;10375;49.136;10.366;2024-02-21T02:24:24;6.20;99.90
20432;DHT22;10375;49.136;10.366;2024-02-21T02:26:54;6.20;99.90
20432;DHT22;10375;49.136;10.366;2024-02-21T02:29:22;6.20;99.90
20432;DHT22;10375;49.136;10.366;2024-02-21T02:31:49;6.10;99.90
20432;DHT22;10375;49.136;10.366;2024-02-21T02:34:17;6.10;99.90
20432;DHT22;10375;49.136;10.366;2024-02-21T02:36:44;6.10;99.90
20432;DHT22;10375;49.136;10.366;2024-02-21T02:39:11;6.10;99.90
20432;DHT22;10375;49.136;10.366;2024-02-21T02:41:42;6.00;99.90
20432;DHT22;10375;49.136;10.366;2024-02-21T02:44:09;6.10;99.90
20432;DHT22;10375;49.136;10.366;2024-02-21T02:46:36;6.00;99.90
20432;DHT22;10375;49.136;10.366;2024-02-21T02:49:03;6.10;99.90
20432;DHT22;10375;49.136;10.366;2024-02-21T02:51:30;6.10;99.90
20432;DHT22;10375;49.136;10.366;2024-02-21T02:53:58;6.10;99.90
20432;DHT22;10375;49.136;10.366;2024-02-21T02:56:27;6.20;99.90
20432;DHT22;10375;49.136;10.366;2024-02-21T02:58:54;6.20;99.90
20432;DHT22;10375;49.136;10.366;2024-02-21T03:01:21;6.20;99.90
20432;DHT22;10375;49.136;10.366;2024-02-21T03:03:48;6.20;99.90
20432;DHT22;10375;49.136;10.366;2024-02-21T03:06:15;6.20;99.90
20432;DHT22;10375;49.136;10.366;2024-02-21T03:08:43;6.20;99.90
20432;DHT22;10375;49.136;10.366;2024-02-21T03:11:10;6.20;99.90
20432;DHT22;10375;49.136;10.366;2024-02-21T03:13:38;6.20;99.90
20432;DHT22;10375;49.136;10.366;2024-02-21T03:16:05;6.20;99.90
20432;DHT22;10375;49.136;10.366;2024-02-21T03:18:33;6.20;99.90
20432;DHT22;10375;49.136;10.366;2024-02-21T03:21:00;6.20;99.90
20432;DHT22;10375;49.136;10.366;2024-02-21T03:23:27;6.20;99.90
20432;DHT22;10375;49.136;10.366;2024-02-21T03:25:54;6.20;99.90
20432;DHT22;10375;49.136;10.366;2024-02-21T03:28:22;6.20;99.90
20432;DHT22;10375;49.136;10.366;2024-02-21T03:30:49;6.20;99.90
20432;DHT22;10375;49.136;10.366;2024-02-21T03:33:16;6.10;99.90
20432;DHT22;10375;49.136;10.366;2024-02-21T03:35:43;6.20;99.90
20432;DHT22;10375;49.136;10.366;2024-02-21T03:38:10;6.10;99.90
20432;DHT22;10375;49.136;10.366;2024-02-21T03:40:37;6.20;99.90
20432;DHT22;10375;49.136;10.366;2024-02-21T03:43:05;6.10;99.90
20432;DHT22;10375;49.136;10.366;2024-02-21T03:45:32;6.10;99.90
20432;DHT22;10375;49.136;10.366;2024-02-21T03:47:59;6.10;99.90
20432;DHT22;10375;49.136;10.366;2024-02-21T03:50:26;6.00;99.90
20432;DHT22;10375;49.136;10.366;2024-02-21T03:52:54;6.00;99.90
20432;DHT22;10375;49.136;10.366;2024-02-21T03:55:22;6.10;99.90
20432;DHT22;10375;49.136;10.366;2024-02-21T03:57:49;6.00;99.90
20432;DHT22;10375;49.136;10.366;2024-02-21T04:00:43;6.00;99.90
20432;DHT22;10375;49.136;10.366;2024-02-21T04:03:10;6.10;99.90
20432;DHT22;10375;49.136;10.366;2024-02-21T04:05:37;6.10;99.90
20432;DHT22;10375;49.136;10.366;2024-02-21T04:21:19;6.00;99.90
20432;DHT22;10375;49.136;10.366;2024-02-21T04:24:03;5.90;99.90
20432;DHT22;10375;49.136;10.366;2024-02-21T04:26:48;5.90;99.90
20432;DHT22;10375;49.136;10.366;2024-02-21T04:29:15;5.80;99.90
20432;DHT22;10375;49.136;10.366;2024-02-21T04:31:50;5.80;99.90
20432;DHT22;10375;49.136;10.366;2024-02-21T04:34:17;5.70;99.90
20432;DHT22;10375;49.136;10.366;2024-02-21T04:36:45;5.70;99.90
20432;DHT22;10375;49.136;10.366;2024-02-21T04:39:12;5.60;99.90
20432;DHT22;10375;49.136;10.366;2024-02-21T04:41:40;5.60;99.90
20432;DHT22;10375;49.136;10.366;2024-02-21T04:44:11;5.60;99.90
20432;DHT22;10375;49.136;10.366;2024-02-21T04:46:50;5.50;99.90
20432;DHT22;10375;49.136;10.366;2024-02-21T04:49:26;5.50;99.90
20432;DHT22;10375;49.136;10.366;2024-02-21T05:19:22;5.10;99.90
20432;DHT22;10375;49.136;10.366;2024-02-21T05:21:50;5.00;99.90
20432;DHT22;10375;49.136;10.366;2024-02-21T05:24:25;5.00;99.90
20432;DHT22;10375;49.136;10.366;2024-02-21T05:26:54;5.00;99.90
20432;DHT22;10375;49.136;10.366;2024-02-21T05:30:12;5.00;99.90
20432;DHT22;10375;49.136;10.366;2024-02-21T05:32:49;4.90;99.90
20432;DHT22;10375;49.136;10.366;2024-02-21T05:36:02;5.00;99.90
20432;DHT22;10375;49.136;10.366;2024-02-21T05:38:38;4.90;99.90
20432;DHT22;10375;49.136;10.366;2024-02-21T05:41:31;4.90;99.90
20432;DHT22;10375;49.136;10.366;2024-02-21T05:44:22;4.90;99.90
20432;DHT22;10375;49.136;10.366;2024-02-21T05:47:04;4.90;99.90
20432;DHT22;10375;49.136;10.366;2024-02-21T05:49:42;4.90;99.90
20432;DHT22;10375;49.136;10.366;2024-02-21T05:52:15;4.90;99.90
20432;DHT22;10375;49.136;10.366;2024-02-21T05:54:55;4.80;99.90
20432;DHT22;10375;49.136;10.366;2024-02-21T05:57:38;4.90;99.90
20432;DHT22;10375;49.136;10.366;2024-02-21T06:00:12;4.80;99.90
20432;DHT22;10375;49.136;10.366;2024-02-21T06:02:47;4.80;99.90
20432;DHT22;10375;49.136;10.366;2024-02-21T06:05:54;4.80;99.90
20432;DHT22;10375;49.136;10.366;2024-02-21T06:08:25;4.70;99.90
20432;DHT22;10375;49.136;10.366;2024-02-21T06:11:34;4.70;99.90
20432;DHT22;10375;49.136;10.366;2024-02-21T06:14:29;4.60;99.90
20432;DHT22;10375;49.136;10.366;2024-02-21T06:17:18;4.50;99.90
20432;DHT22;10375;49.136;10.366;2024-02-21T06:20:12;4.50;99.90
20432;DHT22;10375;49.136;10.366;2024-02-21T06:39:42;4.30;99.90
20432;DHT22;10375;49.136;10.366;2024-02-21T06:42:10;4.30;99.90
20432;DHT22;10375;49.136;10.366;2024-02-21T06:44:45;4.40;99.90
20432;DHT22;10375;49.136;10.366;2024-02-21T06:50:21;4.60;99.90
20432;DHT22;10375;49.136;10.366;2024-02-21T06:52:52;4.60;99.90
20432;DHT22;10375;49.136;10.366;2024-02-21T06:55:23;4.80;99.90
20432;DHT22;10375;49.136;10.366;2024-02-21T06:57:50;4.90;99.90
20432;DHT22;10375;49.136;10.366;2024-02-21T07:00:24;5.00;99.90
20432;DHT22;10375;49.136;10.366;2024-02-21T07:02:55;5.00;99.90
20432;DHT22;10375;49.136;10.366;2024-02-21T07:05:24;5.10;99.90
20432;DHT22;10375;49.136;10.366;2024-02-21T07:07:58;5.20;99.90
20432;DHT22;10375;49.136;10.366;2024-02-21T07:10:27;5.60;99.90
20432;DHT22;10375;49.136;10.366;2024-02-21T07:13:00;6.40;99.90
20432;DHT22;10375;49.136;10.366;2024-02-21T07:15:43;6.90;99.90
20432;DHT22;10375;49.136;10.366;2024-02-21T07:18:14;7.00;99.90
20432;DHT22;10375;49.136;10.366;2024-02-21T07:20:54;7.30;99.90
20432;DHT22;10375;49.136;10.366;2024-02-21T07:23:44;7.70;99.90
20432;DHT22;10375;49.136;10.366;2024-02-21T07:26:22;7.90;99.90
20432;DHT22;10375;49.136;10.366;2024-02-21T07:28:55;8.10;99.90
20432;DHT22;10375;49.136;10.366;2024-02-21T07:31:53;8.40;99.90
20432;DHT22;10375;49.136;10.366;2024-02-21T07:34:25;8.40;99.90
20432;DHT22;10375;49.136;10.366;2024-02-21T07:37:03;8.30;99.90
20432;DHT22;10375;49.136;10.366;2024-02-21T07:40:16;8.20;99.90
20432;DHT22;10375;49.136;10.366;2024-02-21T07:43:21;8.10;99.90
20432;DHT22;10375;49.136;10.366;2024-02-21T07:45:59;8.20;99.90
20432;DHT22;10375;49.136;10.366;2024-02-21T07:48:34;8.30;99.90
20432;DHT22;10375;49.136;10.366;2024-02-21T07:51:04;8.40;99.90
20432;DHT22;10375;49.136;10.366;2024-02-21T07:53:41;8.30;99.90
20432;DHT22;10375;49.136;10.366;2024-02-21T07:56:36;8.40;99.90
20432;DHT22;10375;49.136;10.366;2024-02-21T07:59:14;8.80;99.90
20432;DHT22;10375;49.136;10.366;2024-02-21T08:01:48;10.30;99.90
20432;DHT22;10375;49.136;10.366;2024-02-21T08:04:17;11.70;99.90
20432;DHT22;10375;49.136;10.366;2024-02-21T08:06:45;12.90;99.90
20432;DHT22;10375;49.136;10.366;2024-02-21T08:09:15;13.60;99.90
20432;DHT22;10375;49.136;10.366;2024-02-21T08:11:43;13.50;99.90
20432;DHT22;10375;49.136;10.366;2024-02-21T08:14:12;13.70;99.90
20432;DHT22;10375;49.136;10.366;2024-02-21T08:16:54;13.80;99.90
20432;DHT22;10375;49.136;10.366;2024-02-21T08:19:26;13.50;99.90
20432;DHT22;10375;49.136;10.366;2024-02-21T08:21:53;12.80;99.90
20432;DHT22;10375;49.136;10.366;2024-02-21T08:24:26;12.20;99.90
20432;DHT22;10375;49.136;10.366;2024-02-21T08:26:54;12.00;99.90
20432;DHT22;10375;49.136;10.366;2024-02-21T08:29:22;12.00;99.90
20432;DHT22;10375;49.136;10.366;2024-02-21T08:31:53;11.90;99.90
20432;DHT22;10375;49.136;10.366;2024-02-21T08:34:21;11.60;99.90
20432;DHT22;10375;49.136;10.366;2024-02-21T08:36:59;11.40;99.90
20432;DHT22;10375;49.136;10.366;2024-02-21T08:39:44;11.30;99.90
20432;DHT22;10375;49.136;10.366;2024-02-21T08:42:12;11.00;99.90
20432;DHT22;10375;49.136;10.366;2024-02-21T08:48:05;11.40;99.90
20432;DHT22;10375;49.136;10.366;2024-02-21T08:50:41;11.50;99.90
20432;DHT22;10375;49.136;10.366;2024-02-21T08:53:13;11.60;99.90
20432;DHT22;10375;49.136;10.366;2024-02-21T08:55:47;11.60;99.90
20432;DHT22;10375;49.136;10.366;2024-02-21T08:58:26;11.80;99.90
20432;DHT22;10375;49.136;10.366;2024-02-21T09:00:57;12.00;99.90
20432;DHT22;10375;49.136;10.366;2024-02-21T09:03:28;12.10;99.90
20432;DHT22;10375;49.136;10.366;2024-02-21T09:05:55;12.00;99.90
20432;DHT22;10375;49.136;10.366;2024-02-21T09:08:41;11.80;99.90
20432;DHT22;10375;49.136;10.366;2024-02-21T09:11:09;11.90;99.90
20432;DHT22;10375;49.136;10.366;2024-02-21T09:13:37;12.00;99.90
20432;DHT22;10375;49.136;10.366;2024-02-21T09:19:02;12.20;99.90
20432;DHT22;10375;49.136;10.366;2024-02-21T09:21:42;12.00;99.90
20432;DHT22;10375;49.136;10.366;2024-02-21T09:24:09;11.80;99.90
20432;DHT22;10375;49.136;10.366;2024-02-21T09:26:37;11.60;99.90
20432;DHT22;10375;49.136;10.366;2024-02-21T09:29:05;11.40;99.90
20432;DHT22;10375;49.136;10.366;2024-02-21T09:31:33;11.40;99.90
20432;DHT22;10375;49.136;10.366;2024-02-21T09:34:01;11.60;99.90
20432;DHT22;10375;49.136;10.366;2024-02-21T09:36:46;11.70;99.90
20432;DHT22;10375;49.136;10.366;2024-02-21T09:39:14;11.60;99.90
20432;DHT22;10375;49.136;10.366;2024-02-21T09:41:53;11.70;99.90
20432;DHT22;10375;49.136;10.366;2024-02-21T09:44:23;11.70;99.90
20432;DHT22;10375;49.136;10.366;2024-02-21T09:47:13;11.40;99.90
20432;DHT22;10375;49.136;10.366;2024-02-21T09:49:44;11.30;99.90
20432;DHT22;10375;49.136;10.366;2024-02-21T09:52:14;11.30;99.90
20432;DHT22;10375;49.136;10.366;2024-02-21T09:54:42;11.40;99.90
20432;DHT22;10375;49.136;10.366;2024-02-21T09:57:15;11.40;99.90
20432;DHT22;10375;49.136;10.366;2024-02-21T09:59:43;11.30;99.90
20432;DHT22;10375;49.136;10.366;2024-02-21T10:02:22;11.40;99.90
20432;DHT22;10375;49.136;10.366;2024-02-21T10:04:50;11.60;99.90
20432;DHT22;10375;49.136;10.366;2024-02-21T10:07:17;11.80;99.90
20432;DHT22;10375;49.136;10.366;2024-02-21T10:10:03;11.70;99.90
20432;DHT22;10375;49.136;10.366;2024-02-21T10:12:30;11.60;99.90
20432;DHT22;10375;49.136;10.366;2024-02-21T10:15:04;11.50;99.90
20432;DHT22;10375;49.136;10.366;2024-02-21T10:17:32;11.50;99.90
20432;DHT22;10375;49.136;10.366;2024-02-21T10:20:09;11.40;99.90
20432;DHT22;10375;49.136;10.366;2024-02-21T10:22:38;11.30;99.90
20432;DHT22;10375;49.136;10.366;2024-02-21T10:25:08;11.30;99.90
20432;DHT22;10375;49.136;10.366;2024-02-21T10:27:39;11.30;99.90
20432;DHT22;10375;49.136;10.366;2024-02-21T10:30:13;11.40;99.90
20432;DHT22;10375;49.136;10.366;2024-02-21T10:32:51;11.40;99.90
20432;DHT22;10375;49.136;10.366;2024-02-21T10:35:33;11.70;99.90
20432;DHT22;10375;49.136;10.366;2024-02-21T10:38:01;11.70;99.90
20432;DHT22;10375;49.136;10.366;2024-02-21T10:40:29;11.80;99.90
20432;DHT22;10375;49.136;10.366;2024-02-21T10:43:03;11.90;99.90
20432;DHT22;10375;49.136;10.366;2024-02-21T10:45:34;12.10;99.90
20432;DHT22;10375;49.136;10.366;2024-02-21T10:48:09;12.30;99.90
20432;DHT22;10375;49.136;10.366;2024-02-21T10:50:57;12.40;99.90
20432;DHT22;10375;49.136;10.366;2024-02-21T10:56:28;12.70;99.90
20432;DHT22;10375;49.136;10.366;2024-02-21T10:59:01;12.70;99.90
20432;DHT22;10375;49.136;10.366;2024-02-21T11:01:30;12.70;99.90
20432;DHT22;10375;49.136;10.366;2024-02-21T11:04:02;12.70;99.90
20432;DHT22;10375;49.136;10.366;2024-02-21T11:06:30;12.80;99.90
20432;DHT22;10375;49.136;10.366;2024-02-21T11:09:06;12.80;99.90
20432;DHT22;10375;49.136;10.366;2024-02-21T11:11:35;12.70;99.90
20432;DHT22;10375;49.136;10.366;2024-02-21T11:14:08;12.50;99.90
20432;DHT22;10375;49.136;10.366;2024-02-21T11:16:40;12.60;99.90
20432;DHT22;10375;49.136;10.366;2024-02-21T11:19:22;12.70;99.90
20432;DHT22;10375;49.136;10.366;2024-02-21T11:21:51;12.80;99.90
20432;DHT22;10375;49.136;10.366;2024-02-21T11:24:34;13.00;99.90
20432;DHT22;10375;49.136;10.366;2024-02-21T11:27:09;13.00;99.90
20432;DHT22;10375;49.136;10.366;2024-02-21T11:29:46;13.00;99.90
20432;DHT22;10375;49.136;10.366;2024-02-21T11:32:18;13.20;99.90
20432;DHT22;10375;49.136;10.366;2024-02-21T11:35:04;13.30;99.90
20432;DHT22;10375;49.136;10.366;2024-02-21T11:37:35;13.50;99.90
20432;DHT22;10375;49.136;10.366;2024-02-21T11:40:06;13.60;99.90
20432;DHT22;10375;49.136;10.366;2024-02-21T11:42:39;13.60;99.90
20432;DHT22;10375;49.136;10.366;2024-02-21T11:45:07;13.40;99.90
20432;DHT22;10375;49.136;10.366;2024-02-21T11:47:39;13.50;99.90
20432;DHT22;10375;49.136;10.366;2024-02-21T11:50:11;13.40;99.90
20432;DHT22;10375;49.136;10.366;2024-02-21T11:52:41;13.40;99.90
20432;DHT22;10375;49.136;10.366;2024-02-21T11:55:08;13.30;99.90
20432;DHT22;10375;49.136;10.366;2024-02-21T11:57:37;13.30;99.90
20432;DHT22;10375;49.136;10.366;2024-02-21T12:00:17;13.30;99.90
20432;DHT22;10375;49.136;10.366;2024-02-21T12:02:44;13.20;99.90
20432;DHT22;10375;49.136;10.366;2024-02-21T12:05:14;13.30;99.90
20432;DHT22;10375;49.136;10.366;2024-02-21T12:07:42;13.40;99.90
20432;DHT22;10375;49.136;10.366;2024-02-21T12:10:11;13.20;99.90
20432;DHT22;10375;49.136;10.366;2024-02-21T12:12:39;13.20;99.90
20432;DHT22;10375;49.136;10.366;2024-02-21T12:15:07;13.30;99.90
20432;DHT22;10375;49.136;10.366;2024-02-21T12:17:39;13.40;99.90
20432;DHT22;10375;49.136;10.366;2024-02-21T12:20:07;13.50;99.90
20432;DHT22;10375;49.136;10.366;2024-02-21T12:22:41;13.60;99.90
20432;DHT22;10375;49.136;10.366;2024-02-21T12:25:23;13.60;99.90
20432;DHT22;10375;49.136;10.366;2024-02-21T12:27:54;13.70;99.90
20432;DHT22;10375;49.136;10.366;2024-02-21T12:43:32;13.80;98.80
20432;DHT22;10375;49.136;10.366;2024-02-21T12:58:45;13.20;98.90
20432;DHT22;10375;49.136;10.366;2024-02-21T13:01:12;13.30;99.90
20432;DHT22;10375;49.136;10.366;2024-02-21T13:03:42;13.40;99.90
20432;DHT22;10375;49.136;10.366;2024-02-21T13:06:16;13.40;99.70
20432;DHT22;10375;49.136;10.366;2024-02-21T13:19:36;13.50;98.40
20432;DHT22;10375;49.136;10.366;2024-02-21T13:22:36;13.40;97.00
20432;DHT22;10375;49.136;10.366;2024-02-21T13:25:22;13.10;97.60
20432;DHT22;10375;49.136;10.366;2024-02-21T13:28:16;13.10;99.60
20432;DHT22;10375;49.136;10.366;2024-02-21T13:33:47;13.20;97.60
20432;DHT22;10375;49.136;10.366;2024-02-21T13:36:15;13.30;98.60
20432;DHT22;10375;49.136;10.366;2024-02-21T13:38:43;13.30;97.90
20432;DHT22;10375;49.136;10.366;2024-02-21T13:41:10;13.40;99.00
20432;DHT22;10375;49.136;10.366;2024-02-21T13:43:52;13.30;97.70
20432;DHT22;10375;49.136;10.366;2024-02-21T13:46:24;13.30;97.50
20432;DHT22;10375;49.136;10.366;2024-02-21T13:49:13;13.30;97.10
20432;DHT22;10375;49.136;10.366;2024-02-21T13:51:40;13.20;98.50
20432;DHT22;10375;49.136;10.366;2024-02-21T13:54:09;13.20;98.00
20432;DHT22;10375;49.136;10.366;2024-02-21T13:56:38;13.30;97.40
20432;DHT22;10375;49.136;10.366;2024-02-21T13:59:23;13.40;98.60
20432;DHT22;10375;49.136;10.366;2024-02-21T14:01:54;13.50;97.60
20432;DHT22;10375;49.136;10.366;2024-02-21T14:04:24;13.50;98.40
20432;DHT22;10375;49.136;10.366;2024-02-21T14:06:52;13.40;98.10
20432;DHT22;10375;49.136;10.366;2024-02-21T14:09:23;13.30;96.40
20432;DHT22;10375;49.136;10.366;2024-02-21T14:11:52;13.20;97.80
20432;DHT22;10375;49.136;10.366;2024-02-21T14:14:22;13.20;97.60
20432;DHT22;10375;49.136;10.366;2024-02-21T14:16:50;13.20;98.20
20432;DHT22;10375;49.136;10.366;2024-02-21T14:53:28;12.20;97.90
20432;DHT22;10375;49.136;10.366;2024-02-21T15:07:20;12.00;96.90
20432;DHT22;10375;49.136;10.366;2024-02-21T15:26:34;11.80;99.50
20432;DHT22;10375;49.136;10.366;2024-02-21T15:29:07;11.80;99.90
20432;DHT22;10375;49.136;10.366;2024-02-21T15:31:44;11.80;99.90
20432;DHT22;10375;49.136;10.366;2024-02-21T15:34:32;11.70;99.90
20432;DHT22;10375;49.136;10.366;2024-02-21T15:37:11;11.70;99.90
20432;DHT22;10375;49.136;10.366;2024-02-21T15:40:01;11.60;99.90
20432;DHT22;10375;49.136;10.366;2024-02-21T15:42:32;11.60;99.20
20432;DHT22;10375;49.136;10.366;2024-02-21T15:45:00;11.50;98.50
20432;DHT22;10375;49.136;10.366;2024-02-21T15:47:28;11.50;99.00
20432;DHT22;10375;49.136;10.366;2024-02-21T15:49:55;11.40;99.90
20432;DHT22;10375;49.136;10.366;2024-02-21T15:52:23;11.30;99.90
20432;DHT22;10375;49.136;10.366;2024-02-21T15:54:51;11.30;99.90
20432;DHT22;10375;49.136;10.366;2024-02-21T15:57:19;11.30;99.90
20432;DHT22;10375;49.136;10.366;2024-02-21T15:59:47;11.20;99.90
20432;DHT22;10375;49.136;10.366;2024-02-21T16:02:17;11.10;99.90
20432;DHT22;10375;49.136;10.366;2024-02-21T16:04:46;11.00;99.90
20432;DHT22;10375;49.136;10.366;2024-02-21T16:07:15;10.90;99.90
20432;DHT22;10375;49.136;10.366;2024-02-21T16:09:44;10.80;99.90
20432;DHT22;10375;49.136;10.366;2024-02-21T16:12:13;10.70;99.90
20432;DHT22;10375;49.136;10.366;2024-02-21T16:14:59;10.70;99.90
20432;DHT22;10375;49.136;10.366;2024-02-21T16:17:58;10.50;99.90
20432;DHT22;10375;49.136;10.366;2024-02-21T16:20:45;10.30;99.90
20432;DHT22;10375;49.136;10.366;2024-02-21T16:23:12;10.10;99.90
20432;DHT22;10375;49.136;10.366;2024-02-21T16:25:41;9.80;99.90
20432;DHT22;10375;49.136;10.366;2024-02-21T16:28:12;9.60;99.90
20432;DHT22;10375;49.136;10.366;2024-02-21T16:30:53;9.50;99.90
20432;DHT22;10375;49.136;10.366;2024-02-21T16:33:26;9.40;99.90
20432;DHT22;10375;49.136;10.366;2024-02-21T16:35:55;9.30;99.90
20432;DHT22;10375;49.136;10.366;2024-02-21T16:38:23;9.30;99.90
20432;DHT22;10375;49.136;10.366;2024-02-21T16:40:56;9.10;99.90
20432;DHT22;10375;49.136;10.366;2024-02-21T16:43:29;9.10;99.90
20432;DHT22;10375;49.136;10.366;2024-02-21T16:46:23;9.00;99.90
20432;DHT22;10375;49.136;10.366;2024-02-21T16:48:54;8.90;99.90
20432;DHT22;10375;49.136;10.366;2024-02-21T16:51:29;8.90;99.90
20432;DHT22;10375;49.136;10.366;2024-02-21T16:53:58;8.80;99.90
20432;DHT22;10375;49.136;10.366;2024-02-21T17:41:38;8.30;99.90
20432;DHT22;10375;49.136;10.366;2024-02-21T17:44:14;8.20;99.90
20432;DHT22;10375;49.136;10.366;2024-02-21T17:46:41;8.20;99.90
20432;DHT22;10375;49.136;10.366;2024-02-21T17:49:30;8.20;99.90
20432;DHT22;10375;49.136;10.366;2024-02-21T17:51:58;8.20;99.90
20432;DHT22;10375;49.136;10.366;2024-02-21T17:54:25;8.20;99.90
20432;DHT22;10375;49.136;10.366;2024-02-21T17:56:52;8.20;99.90
20432;DHT22;10375;49.136;10.366;2024-02-21T17:59:19;8.20;99.90
20432;DHT22;10375;49.136;10.366;2024-02-21T18:02:02;8.10;99.90
20432;DHT22;10375;49.136;10.366;2024-02-21T18:04:29;8.10;99.90
20432;DHT22;10375;49.136;10.366;2024-02-21T18:06:57;8.10;99.90
20432;DHT22;10375;49.136;10.366;2024-02-21T18:09:26;8.20;99.90
20432;DHT22;10375;49.136;10.366;2024-02-21T18:11:54;8.20;99.90
20432;DHT22;10375;49.136;10.366;2024-02-21T18:14:34;8.20;99.90
20432;DHT22;10375;49.136;10.366;2024-02-21T18:17:01;8.20;99.90
20432;DHT22;10375;49.136;10.366;2024-02-21T18:19:35;8.20;99.90
20432;DHT22;10375;49.136;10.366;2024-02-21T18:22:03;8.30;99.90
20432;DHT22;10375;49.136;10.366;2024-02-21T18:24:34;8.30;99.90
20432;DHT22;10375;49.136;10.366;2024-02-21T18:27:01;8.40;99.90
20432;DHT22;10375;49.136;10.366;2024-02-21T18:29:31;8.40;99.90
20432;DHT22;10375;49.136;10.366;2024-02-21T18:32:06;8.50;99.90
20432;DHT22;10375;49.136;10.366;2024-02-21T18:34:57;8.60;99.90
20432;DHT22;10375;49.136;10.366;2024-02-21T18:37:25;8.70;99.90
20432;DHT22;10375;49.136;10.366;2024-02-21T18:43:07;8.70;99.90
20432;DHT22;10375;49.136;10.366;2024-02-21T18:45:35;8.70;99.90
20432;DHT22;10375;49.136;10.366;2024-02-21T18:48:06;8.70;99.90
20432;DHT22;10375;49.136;10.366;2024-02-21T18:50:34;8.70;99.90
20432;DHT22;10375;49.136;10.366;2024-02-21T18:53:01;8.70;99.90
20432;DHT22;10375;49.136;10.366;2024-02-21T18:55:32;8.70;99.90
20432;DHT22;10375;49.136;10.366;2024-02-21T18:57:59;8.80;99.90
20432;DHT22;10375;49.136;10.366;2024-02-21T19:00:29;8.70;99.90
20432;DHT22;10375;49.136;10.366;2024-02-21T19:02:56;8.70;99.90
20432;DHT22;10375;49.136;10.366;2024-02-21T19:05:28;8.80;99.90
20432;DHT22;10375;49.136;10.366;2024-02-21T19:07:55;8.70;99.90
20432;DHT22;10375;49.136;10.366;2024-02-21T19:10:39;8.80;99.90
20432;DHT22;10375;49.136;10.366;2024-02-21T19:13:06;8.80;99.90
20432;DHT22;10375;49.136;10.366;2024-02-21T19:15:33;8.80;99.90
20432;DHT22;10375;49.136;10.366;2024-02-21T19:18:01;8.70;99.90
20432;DHT22;10375;49.136;10.366;2024-02-21T19:20:29;8.80;99.90
20432;DHT22;10375;49.136;10.366;2024-02-21T19:22:56;8.70;99.90
20432;DHT22;10375;49.136;10.366;2024-02-21T19:25:24;8.70;99.90
20432;DHT22;10375;49.136;10.366;2024-02-21T19:27:52;8.70;99.90
20432;DHT22;10375;49.136;10.366;2024-02-21T19:30:19;8.70;99.90
20432;DHT22;10375;49.136;10.366;2024-02-21T19:32:49;8.60;99.90
20432;DHT22;10375;49.136;10.366;2024-02-21T19:35:16;8.60;99.90
20432;DHT22;10375;49.136;10.366;2024-02-21T19:37:50;8.50;99.90